Time;durP1;ratioP1;P1;durP2;ratioP2;P2;SDS_P1;SDS_P2;PMS_P1;PMS_P2;Temp;Humidity;BMP_temperature;BMP_pressure;BME280_temperature;BME280_humidity;BME280_pressure;Samples;Min_cycle;Max_cycle;Signal;HPM_P1;HPM_P2
2021/07/30 00:02:28;;;;;;;18.67;7.13;;;;;;;11.94;100.00;101077.78;5233782;28;20032;-78
2021/07/30 00:04:58;;;;;;;19.35;6.47;;;;;;;11.89;100.00;101078.28;5188893;28;20075;-80
2021/07/30 00:07:29;;;;;;;15.75;6.35;;;;;;;11.84;100.00;101075.28;5230692;28;20044;-80
2021/07/30 00:09:59;;;;;;;17.15;5.95;;;;;;;11.79;100.00;101079.44;5213275;28;20071;-80
2021/07/30 00:12:30;;;;;;;14.27;6.13;;;;;;;11.75;100.00;101070.06;5231327;28;20052;-78
2021/07/30 00:15:00;;;;;;;15.20;6.32;;;;;;;11.70;100.00;101070.56;5231234;28;20383;-80
2021/07/30 00:17:31;;;;;;;13.73;6.93;;;;;;;11.65;100.00;101076.44;5230231;28;20111;-79
2021/07/30 00:20:05;;;;;;;14.38;6.63;;;;;;;11.63;100.00;101059.63;5230525;28;20035;-80
2021/07/30 00:22:35;;;;;;;12.88;6.55;;;;;;;11.59;100.00;101065.50;5230936;28;20028;-80
2021/07/30 00:25:06;;;;;;;13.07;6.70;;;;;;;11.57;100.00;101062.16;5230276;28;20037;-78
2021/07/30 00:27:37;;;;;;;17.23;7.07;;;;;;;11.55;100.00;101053.44;5229933;28;20115;-80
2021/07/30 00:30:09;;;;;;;14.45;6.80;;;;;;;11.53;100.00;101058.13;5229402;28;20576;-79
2021/07/30 00:32:39;;;;;;;18.88;7.07;;;;;;;11.55;100.00;101058.81;5212186;28;20025;-80
2021/07/30 00:35:10;;;;;;;18.40;7.10;;;;;;;11.54;100.00;101067.84;5212093;28;20181;-77
2021/07/30 00:37:41;;;;;;;13.98;6.75;;;;;;;11.52;100.00;101062.66;5229843;28;20056;-80
2021/07/30 00:40:12;;;;;;;15.60;6.88;;;;;;;11.49;100.00;101057.59;5228858;28;20128;-79
2021/07/30 00:42:48;;;;;;;15.18;6.65;;;;;;;11.48;100.00;101061.31;5229224;28;20025;-80
2021/07/30 00:45:20;;;;;;;23.10;9.60;;;;;;;11.48;100.00;101052.41;5229269;28;20116;-80
2021/07/30 00:47:50;;;;;;;15.10;6.75;;;;;;;11.50;100.00;101050.41;5229722;28;20021;-80
2021/07/30 00:50:21;;;;;;;16.98;6.88;;;;;;;11.53;100.00;101047.38;5229895;28;20033;-78
2021/07/30 00:52:52;;;;;;;18.30;6.13;;;;;;;11.55;100.00;101048.06;5229673;28;20059;-80
2021/07/30 00:55:23;;;;;;;15.85;6.78;;;;;;;11.56;100.00;101055.09;5229715;28;20013;-79
2021/07/30 00:57:53;;;;;;;15.93;7.35;;;;;;;11.59;100.00;101044.00;5227442;28;20017;-79
2021/07/30 01:00:25;;;;;;;14.85;6.85;;;;;;;11.59;100.00;101055.59;5224761;28;20028;-80
2021/07/30 01:02:59;;;;;;;21.23;7.15;;;;;;;11.59;100.00;101055.59;5225751;28;20487;-79
2021/07/30 01:05:31;;;;;;;14.13;6.82;;;;;;;11.57;100.00;101057.63;5223160;28;20028;-79
2021/07/30 01:08:03;;;;;;;15.77;6.10;;;;;;;11.56;100.00;101045.19;5214303;28;20403;-80
2021/07/30 01:10:39;;;;;;;12.48;6.30;;;;;;;11.54;100.00;101046.34;5225314;28;20061;-80
2021/07/30 01:13:30;;;;;;;15.45;7.60;;;;;;;11.52;100.00;101043.84;5210196;28;20035;-79
2021/07/30 01:16:04;;;;;;;17.23;6.75;;;;;;;11.49;100.00;101054.91;5224944;28;20112;-80
2021/07/30 01:18:34;;;;;;;17.00;7.78;;;;;;;11.45;100.00;101042.84;5225732;28;20462;-79
2021/07/30 01:21:07;;;;;;;18.33;7.28;;;;;;;11.42;100.00;101043.16;5225220;28;20049;-80
2021/07/30 01:23:38;;;;;;;15.80;6.45;;;;;;;11.41;100.00;101046.88;5224770;28;20025;-79
2021/07/30 01:26:08;;;;;;;21.38;7.43;;;;;;;11.39;100.00;101043.50;5225476;28;20039;-79
2021/07/30 01:28:51;;;;;;;19.85;7.82;;;;;;;11.34;100.00;101041.31;5224699;28;20314;-79
2021/07/30 01:31:21;;;;;;;15.32;6.72;;;;;;;11.31;100.00;101038.13;5206326;28;20108;-79
2021/07/30 01:33:52;;;;;;;21.65;7.93;;;;;;;11.27;100.00;101042.16;5224953;28;20029;-79
2021/07/30 01:36:22;;;;;;;14.85;6.93;;;;;;;11.24;100.00;101029.88;5224499;28;20504;-79
2021/07/30 01:38:53;;;;;;;17.92;6.90;;;;;;;11.24;100.00;101034.41;5207028;28;20025;-80
2021/07/30 01:41:24;;;;;;;17.88;6.45;;;;;;;11.23;100.00;101030.06;5224255;28;20032;-80
2021/07/30 01:43:54;;;;;;;16.75;7.65;;;;;;;11.25;100.00;101031.59;5224386;28;20025;-79
2021/07/30 01:46:25;;;;;;;14.70;6.90;;;;;;;11.28;100.00;101035.75;5224683;28;20057;-79
2021/07/30 01:48:56;;;;;;;17.60;7.25;;;;;;;11.30;100.00;101036.47;5224959;28;20438;-79
2021/07/30 01:51:26;;;;;;;18.02;7.18;;;;;;;11.30;100.00;101031.91;5223642;28;20484;-79
2021/07/30 01:53:58;;;;;;;15.13;7.95;;;;;;;11.29;100.00;101030.22;5206916;28;20438;-79
2021/07/30 01:56:29;;;;;;;19.15;6.97;;;;;;;11.29;100.00;101024.84;5224874;28;20025;-80
2021/07/30 01:58:59;;;;;;;17.05;6.38;;;;;;;11.28;100.00;101025.03;5223953;28;20036;-80
2021/07/30 02:01:30;;;;;;;24.35;7.63;;;;;;;11.27;100.00;101017.97;5223898;28;20028;-78
2021/07/30 02:04:00;;;;;;;14.35;6.28;;;;;;;11.26;100.00;101014.47;5206039;28;20021;-79
2021/07/30 02:06:31;;;;;;;24.55;8.70;;;;;;;11.28;100.00;101025.03;5224777;28;20487;-80
2021/07/30 02:09:02;;;;;;;15.93;6.72;;;;;;;11.31;100.00;101019.31;5223950;28;20029;-79
2021/07/30 02:11:42;;;;;;;12.30;6.82;;;;;;;11.34;100.00;101018.97;5224838;28;20384;-80
2021/07/30 02:14:15;;;;;;;18.67;7.95;;;;;;;11.31;100.00;101020.16;5211182;28;20021;-80
2021/07/30 02:16:47;;;;;;;18.52;7.13;;;;;;;11.27;100.00;101020.66;5222015;28;20487;-80
2021/07/30 02:19:18;;;;;;;19.77;7.35;;;;;;;11.23;100.00;101008.56;5221702;28;20483;-78
2021/07/30 02:21:53;;;;;;;16.25;7.30;;;;;;;11.16;100.00;101003.03;5223609;28;20060;-79
2021/07/30 02:24:24;;;;;;;16.73;7.38;;;;;;;11.15;100.00;101014.78;5223659;28;20029;-80
2021/07/30 02:26:55;;;;;;;18.70;7.65;;;;;;;11.11;100.00;101019.63;5222912;28;20098;-79
2021/07/30 02:29:25;;;;;;;18.13;7.85;;;;;;;11.08;100.00;101011.91;5189230;28;20051;-79
2021/07/30 02:31:56;;;;;;;16.85;7.22;;;;;;;11.06;100.00;101010.41;5223234;28;20331;-79
2021/07/30 02:34:26;;;;;;;17.70;7.20;;;;;;;11.04;100.00;101007.03;5223139;28;20456;-78
2021/07/30 02:36:57;;;;;;;18.50;6.78;;;;;;;11.02;100.00;101004.50;5223317;28;20109;-79
2021/07/30 02:39:27;;;;;;;16.35;6.72;;;;;;;11.02;100.00;100993.78;5222539;28;20052;-80
2021/07/30 02:41:58;;;;;;;19.95;8.05;;;;;;;11.02;100.00;100991.09;5228291;28;20192;-80
2021/07/30 02:44:28;;;;;;;18.27;7.38;;;;;;;11.00;100.00;100992.28;5228338;28;20029;-80
2021/07/30 02:46:59;;;;;;;15.10;6.60;;;;;;;10.96;100.00;100989.06;5228346;28;20103;-79
2021/07/30 02:49:29;;;;;;;12.43;6.75;;;;;;;10.92;100.00;100976.16;5210839;28;20039;-78
2021/07/30 02:52:00;;;;;;;16.65;7.40;;;;;;;10.91;100.00;100980.69;5194619;28;20075;-80
2021/07/30 02:54:30;;;;;;;28.00;9.18;;;;;;;10.92;100.00;100984.19;5229179;28;20044;-80
2021/07/30 02:57:01;;;;;;;16.95;7.85;;;;;;;10.91;100.00;100988.72;5226945;28;20084;-79
2021/07/30 02:59:33;;;;;;;20.35;7.55;;;;;;;10.89;100.00;100983.53;5228723;28;20025;-80
2021/07/30 03:02:04;;;;;;;19.65;8.00;;;;;;;10.92;100.00;100981.53;5229965;28;20020;-80
2021/07/30 03:04:35;;;;;;;28.40;8.38;;;;;;;10.93;100.00;100975.13;5232174;28;20372;-80
2021/07/30 03:07:05;;;;;;;19.10;7.30;;;;;;;10.92;100.00;100968.94;5219217;28;20449;-78
2021/07/30 03:09:36;;;;;;;20.13;7.70;;;;;;;10.92;100.00;100966.25;5233260;28;20100;-80
2021/07/30 03:12:06;;;;;;;17.13;8.43;;;;;;;10.87;100.00;100973.97;5232456;28;20442;-78
2021/07/30 03:14:38;;;;;;;20.92;8.25;;;;;;;10.87;100.00;100963.22;5233071;28;20024;-80
2021/07/30 03:17:09;;;;;;;18.85;8.00;;;;;;;10.85;100.00;100966.09;5232256;28;20080;-80
2021/07/30 03:19:39;;;;;;;27.52;8.40;;;;;;;10.85;100.00;100966.09;5232584;28;20025;-77
2021/07/30 03:22:10;;;;;;;20.70;8.15;;;;;;;10.85;100.00;100967.94;5215577;28;20031;-80
2021/07/30 03:24:40;;;;;;;14.93;7.15;;;;;;;10.84;100.00;100961.72;5232973;28;20053;-80
2021/07/30 03:27:11;;;;;;;16.55;8.15;;;;;;;10.89;100.00;100961.19;5232788;28;20078;-80
2021/07/30 03:29:41;;;;;;;16.65;8.07;;;;;;;10.91;100.00;100961.06;5231442;28;20036;-80
2021/07/30 03:32:12;;;;;;;24.98;8.95;;;;;;;10.91;100.00;100959.22;5215638;28;20078;-78
2021/07/30 03:34:42;;;;;;;18.15;7.85;;;;;;;10.91;100.00;100956.53;5232138;28;20017;-80
2021/07/30 03:37:13;;;;;;;17.58;8.10;;;;;;;10.93;100.00;100954.50;5232187;28;20028;-80
2021/07/30 03:39:44;;;;;;;21.05;7.45;;;;;;;11.01;100.00;100957.22;5231376;28;20031;-78
2021/07/30 03:42:14;;;;;;;17.75;7.45;;;;;;;11.07;100.00;100953.84;5231773;28;20025;-80
2021/07/30 03:44:44;;;;;;;17.25;7.57;;;;;;;11.11;100.00;100959.72;5230459;28;20019;-80
2021/07/30 03:47:15;;;;;;;26.33;8.18;;;;;;;11.04;100.00;100954.16;5230258;28;20029;-80
2021/07/30 03:49:45;;;;;;;21.02;8.55;;;;;;;11.01;100.00;100954.53;5229748;28;20056;-80
2021/07/30 03:52:18;;;;;;;20.88;9.25;;;;;;;10.97;100.00;100952.34;5229172;28;20029;-77
2021/07/30 03:54:48;;;;;;;20.45;9.40;;;;;;;11.01;100.00;100943.78;5229923;28;20085;-80
2021/07/30 03:57:19;;;;;;;19.63;7.63;;;;;;;10.98;100.00;100948.63;5211815;28;20478;-80
2021/07/30 03:59:52;;;;;;;17.30;8.55;;;;;;;10.98;100.00;100948.63;5229420;28;20196;-80
2021/07/30 04:02:23;;;;;;;22.00;8.60;;;;;;;10.94;100.00;100949.97;5231383;28;20474;-80
2021/07/30 04:04:53;;;;;;;15.70;7.75;;;;;;;10.91;100.00;100948.47;5239516;28;20100;-80
2021/07/30 04:07:23;;;;;;;16.75;8.32;;;;;;;10.88;100.00;100930.84;5229534;28;20464;-80
2021/07/30 04:09:54;;;;;;;18.65;8.10;;;;;;;10.87;100.00;100934.53;5211558;28;20468;-80
2021/07/30 04:12:25;;;;;;;17.77;8.15;;;;;;;10.86;100.00;100938.22;5229291;28;20427;-79
2021/07/30 04:15:09;;;;;;;20.58;7.95;;;;;;;10.85;100.00;100931.19;5228621;28;20017;-80
2021/07/30 04:17:40;;;;;;;19.90;9.32;;;;;;;10.84;100.00;100934.88;5229209;28;20125;-80
2021/07/30 04:20:11;;;;;;;14.85;7.60;;;;;;;10.86;100.00;100926.66;5229086;28;20085;-80
2021/07/30 04:22:41;;;;;;;17.30;8.63;;;;;;;10.86;100.00;100926.66;5229349;28;20033;-80
2021/07/30 04:25:12;;;;;;;22.02;8.40;;;;;;;10.90;100.00;100925.31;5228937;28;20060;-80
2021/07/30 04:27:42;;;;;;;19.80;8.18;;;;;;;10.96;100.00;100932.72;5228906;28;20036;-79
2021/07/30 04:30:13;;;;;;;20.25;7.85;;;;;;;11.02;100.00;100929.34;5228857;28;20032;-79
2021/07/30 04:32:43;;;;;;;18.02;8.55;;;;;;;11.12;100.00;100923.81;5229385;28;20045;-80
2021/07/30 04:35:14;;;;;;;23.30;7.97;;;;;;;11.24;100.00;100935.03;5210903;28;20446;-80
2021/07/30 04:37:44;;;;;;;20.55;10.25;;;;;;;11.33;100.00;100925.97;5228507;28;20510;-80
2021/07/30 04:40:15;;;;;;;19.67;7.53;;;;;;;11.40;100.00;100909.03;5228389;28;20176;-79
2021/07/30 04:42:45;;;;;;;28.95;8.82;;;;;;;11.50;100.00;100914.22;5210703;28;20029;-80
2021/07/30 04:45:16;;;;;;;26.92;9.02;;;;;;;11.61;100.00;100923.78;5228358;28;20036;-78
2021/07/30 04:47:46;;;;;;;22.40;8.07;;;;;;;11.73;100.00;100924.25;5228461;28;20388;-80
2021/07/30 04:50:18;;;;;;;18.38;8.23;;;;;;;11.78;100.00;100911.13;5228409;28;20021;-80
2021/07/30 04:52:52;;;;;;;22.95;8.48;;;;;;;11.87;100.00;100921.72;5227574;28;20069;-79
2021/07/30 04:55:23;;;;;;;19.23;8.07;;;;;;;11.96;100.00;100903.72;5228908;28;20551;-80
2021/07/30 04:57:53;;;;;;;20.48;7.88;;;;;;;12.03;100.00;100904.69;5227978;28;20112;-80
2021/07/30 05:00:24;;;;;;;24.40;8.10;;;;;;;12.14;100.00;100895.38;5228464;28;20056;-80
2021/07/30 05:02:55;;;;;;;19.38;7.78;;;;;;;12.24;100.00;100897.88;5234684;28;20258;-80
2021/07/30 05:05:28;;;;;;;19.00;7.95;;;;;;;12.29;100.00;100896.31;5214794;28;20032;-79
2021/07/30 05:07:58;;;;;;;16.50;7.25;;;;;;;12.39;100.00;100899.63;5217914;28;20153;-80
2021/07/30 05:10:29;;;;;;;19.63;7.80;;;;;;;12.50;100.00;100893.03;5229237;28;20594;-80
2021/07/30 05:12:59;;;;;;;26.08;8.25;;;;;;;12.62;100.00;100899.66;5228259;28;20033;-80
2021/07/30 05:15:30;;;;;;;19.25;8.13;;;;;;;12.75;100.00;100890.16;5226590;28;20017;-79
2021/07/30 05:18:00;;;;;;;21.88;8.13;;;;;;;12.96;100.00;100893.03;5209227;28;20040;-80
2021/07/30 05:20:31;;;;;;;21.52;7.45;;;;;;;13.14;100.00;100887.31;5208822;28;20013;-80
2021/07/30 05:23:01;;;;;;;19.67;8.45;;;;;;;13.31;100.00;100888.88;5228743;28;20033;-80
2021/07/30 05:25:32;;;;;;;17.60;6.82;;;;;;;13.43;100.00;100889.28;5227787;28;20108;-80
2021/07/30 05:28:03;;;;;;;22.73;7.50;;;;;;;13.56;100.00;100878.69;5229667;28;20040;-79
2021/07/30 05:30:34;;;;;;;17.80;7.07;;;;;;;13.79;100.00;100877.75;5229251;28;20125;-81
2021/07/30 05:33:06;;;;;;;19.08;6.38;;;;;;;14.00;100.00;100877.84;5211659;28;20365;-80
2021/07/30 05:35:37;;;;;;;15.75;6.95;;;;;;;14.18;100.00;100875.59;5228178;28;20017;-80
2021/07/30 05:38:07;;;;;;;13.27;5.57;;;;;;;14.90;100.00;100880.09;5226080;28;20024;-81
2021/07/30 05:40:57;;;;;;;14.57;5.35;;;;;;;16.25;100.00;100870.81;5224148;28;20044;-80
2021/07/30 05:43:28;;;;;;;21.10;5.65;;;;;;;16.96;100.00;100867.66;5159699;28;20092;-81
2021/07/30 05:46:00;;;;;;;11.30;4.47;;;;;;;17.27;100.00;100865.16;5160001;28;20445;-79
2021/07/30 05:48:31;;;;;;;12.45;5.13;;;;;;;17.20;100.00;100858.91;5160100;28;20040;-80
2021/07/30 05:51:02;;;;;;;15.57;5.20;;;;;;;17.05;100.00;100855.56;5159777;28;20034;-81
2021/07/30 05:53:33;;;;;;;11.57;4.80;;;;;;;17.40;100.00;100858.06;5164987;28;20034;-81
2021/07/30 05:56:04;;;;;;;10.75;4.90;;;;;;;17.90;100.00;100858.38;5166705;28;20077;-82
2021/07/30 05:58:34;;;;;;;13.10;4.65;;;;;;;18.24;100.00;100868.06;5166673;28;20117;-79
2021/07/30 06:01:04;;;;;;;8.45;3.60;;;;;;;18.91;100.00;100857.66;5165041;28;20034;-79
2021/07/30 06:03:35;;;;;;;8.18;3.63;;;;;;;19.14;100.00;100858.72;5163895;28;20208;-80
2021/07/30 06:06:06;;;;;;;7.63;3.40;;;;;;;18.76;100.00;100858.78;5163803;28;20030;-80
2021/07/30 06:08:36;;;;;;;6.90;3.25;;;;;;;18.49;100.00;100854.56;5165968;28;20046;-80
2021/07/30 06:11:07;;;;;;;9.98;4.13;;;;;;;17.98;100.00;100850.84;5165174;28;20026;-81
2021/07/30 06:13:37;;;;;;;9.40;3.72;;;;;;;17.68;100.00;100850.50;5177126;28;20029;-81
2021/07/30 06:16:09;;;;;;;6.57;3.60;;;;;;;17.26;100.00;100859.94;5193401;28;20390;-82
2021/07/30 06:18:40;;;;;;;9.93;4.13;;;;;;;16.95;100.00;100853.28;5227611;28;20025;-80
2021/07/30 06:21:10;;;;;;;8.05;4.00;;;;;;;16.94;100.00;100848.91;5228785;28;20032;-80
2021/07/30 06:23:41;;;;;;;11.57;3.60;;;;;;;17.12;100.00;100848.28;5229109;28;20386;-81
2021/07/30 06:26:11;;;;;;;7.43;3.72;;;;;;;17.27;100.00;100850.75;5229005;28;20079;-80
2021/07/30 06:28:42;;;;;;;9.27;3.63;;;;;;;17.19;100.00;100843.69;5229184;28;20480;-81
2021/07/30 06:31:12;;;;;;;9.88;3.55;;;;;;;17.48;100.00;100847.81;5229391;28;20020;-81
2021/07/30 06:33:42;;;;;;;7.63;3.78;;;;;;;18.32;100.00;100846.06;5211746;28;20445;-81
2021/07/30 06:36:17;;;;;;;10.60;3.53;;;;;;;18.60;100.00;100843.81;5229542;28;20045;-82
2021/07/30 06:38:47;;;;;;;9.43;3.43;;;;;;;18.28;100.00;100840.25;5233158;28;20064;-81
2021/07/30 06:41:18;;;;;;;7.30;3.10;;;;;;;17.79;100.00;100830.88;5230926;28;20358;-87
2021/07/30 06:43:48;;;;;;;7.18;3.10;;;;;;;17.69;100.00;100835.88;5229966;28;20366;-84
2021/07/30 06:46:19;;;;;;;8.30;4.20;;;;;;;17.62;100.00;100832.38;5227074;28;20021;-81
2021/07/30 06:48:49;;;;;;;8.25;3.58;;;;;;;17.77;100.00;100835.69;5227314;28;20057;-81
2021/07/30 06:51:20;;;;;;;13.60;3.58;;;;;;;17.71;100.00;100822.91;5226892;28;20090;-81
2021/07/30 06:53:50;;;;;;;7.13;3.47;;;;;;;17.61;100.00;100827.97;5226762;28;20025;-81
2021/07/30 06:56:21;;;;;;;7.28;3.67;;;;;;;17.82;100.00;100832.31;5227413;28;20035;-80
2021/07/30 06:58:51;;;;;;;9.68;3.75;;;;;;;18.07;100.00;100826.97;5227187;28;20052;-81
2021/07/30 07:01:22;;;;;;;8.90;4.03;;;;;;;18.46;100.00;100825.09;5227088;28;20029;-80
2021/07/30 07:03:53;;;;;;;5.78;3.40;;;;;;;18.43;100.00;100814.69;5226441;28;20108;-80
2021/07/30 07:06:24;;;;;;;9.25;3.17;;;;;;;18.49;100.00;100828.22;5209087;28;20029;-80
2021/07/30 07:08:55;;;;;;;7.68;2.65;;;;;;;18.91;100.00;100830.47;5226578;28;20082;-79
2021/07/30 07:11:25;;;;;;;9.68;3.05;;;;;;;19.05;100.00;100830.13;5228588;28;20021;-81
2021/07/30 07:13:58;;;;;;;6.78;2.75;;;;;;;19.27;100.00;100836.00;5209779;28;20029;-82
2021/07/30 07:16:28;;;;;;;7.50;3.17;;;;;;;19.40;100.00;100837.75;5211371;28;20025;-81
2021/07/30 07:18:59;;;;;;;6.93;2.95;;;;;;;19.39;100.00;100833.38;5226480;28;20025;-80
2021/07/30 07:21:32;;;;;;;10.65;2.75;;;;;;;19.58;100.00;100831.53;5220149;28;20055;-81
2021/07/30 07:24:04;;;;;;;5.88;2.50;;;;;;;19.27;100.00;100833.28;5218949;28;20028;-80
2021/07/30 07:26:36;;;;;;;7.32;3.00;;;;;;;19.39;100.00;100841.53;5225696;28;20056;-79
2021/07/30 07:29:07;;;;;;;8.25;2.95;;;;;;;19.51;100.00;100830.75;5224525;28;20021;-79
2021/07/30 07:31:38;;;;;;;6.78;2.80;;;;;;;19.79;100.00;100828.38;5225739;28;20236;-81
2021/07/30 07:34:08;;;;;;;5.55;2.55;;;;;;;20.12;100.00;100827.13;5224964;28;20104;-80
2021/07/30 07:36:39;;;;;;;8.73;2.65;;;;;;;20.16;100.00;100810.09;5224908;28;20415;-80
2021/07/30 07:39:10;;;;;;;13.35;2.60;;;;;;;20.59;100.00;100816.44;5225217;28;20498;-81
2021/07/30 07:41:44;;;;;;;4.80;2.47;;;;;;;20.49;100.00;100819.72;5224820;28;20506;-81
2021/07/30 07:44:15;;;;;;;8.52;2.30;;;;;;;20.54;100.00;100811.69;5224945;28;20276;-81
2021/07/30 07:46:47;;;;;;;6.72;2.50;;;;;;;20.86;100.00;100809.50;5210467;28;20290;-80
2021/07/30 07:49:18;;;;;;;7.05;2.35;;;;;;;20.64;100.00;100809.22;5229181;28;20025;-81
2021/07/30 07:51:48;;;;;;;5.72;2.97;;;;;;;20.85;100.00;100802.38;5229021;28;20033;-81
2021/07/30 07:54:19;;;;;;;5.97;2.75;;;;;;;20.81;100.00;100800.34;5196484;28;20557;-80
2021/07/30 07:56:49;;;;;;;5.47;2.38;;;;;;;21.11;100.00;100792.91;5220055;28;20087;-83
2021/07/30 07:59:20;;;;;;;6.70;2.63;;;;;;;20.68;100.00;100787.75;5225666;28;20315;-80
2021/07/30 08:01:50;;;;;;;6.68;2.70;;;;;;;20.82;100.00;100786.47;5230677;28;20062;-77
2021/07/30 08:04:20;;;;;;;8.18;2.70;;;;;;;21.03;100.00;100782.34;5228575;28;20035;-80
2021/07/30 08:06:51;;;;;;;7.30;2.55;;;;;;;21.23;100.00;100784.72;5227074;28;20084;-79
2021/07/30 08:09:21;;;;;;;7.78;3.00;;;;;;;21.40;100.00;100777.50;5229324;28;20020;-80
2021/07/30 08:11:52;;;;;;;4.88;2.80;;;;;;;21.67;100.00;100779.69;5228855;28;20025;-81
2021/07/30 08:14:23;;;;;;;7.97;2.50;;;;;;;21.85;100.00;100779.53;5227507;28;20205;-81
2021/07/30 08:16:54;;;;;;;9.75;2.83;;;;;;;22.43;100.00;100774.91;5225975;28;20039;-80
2021/07/30 08:19:24;;;;;;;10.45;3.20;;;;;;;22.65;100.00;100767.66;5225566;28;20391;-79
2021/07/30 08:21:54;;;;;;;8.30;3.03;;;;;;;22.87;100.00;100778.66;5224729;28;20021;-81
2021/07/30 08:24:25;;;;;;;4.95;2.40;;;;;;;22.67;100.00;100768.22;5224778;28;20391;-80
2021/07/30 08:26:55;;;;;;;8.57;2.65;;;;;;;22.97;100.00;100764.34;5225168;28;20025;-79
2021/07/30 08:29:26;;;;;;;14.15;2.80;;;;;;;23.27;100.00;100770.28;5224378;28;20056;-80
2021/07/30 08:31:56;;;;;;;3.97;2.40;;;;;;;22.93;100.00;100757.72;5225534;28;20021;-81
2021/07/30 08:34:27;;;;;;;9.55;2.55;;;;;;;22.93;100.00;100753.06;5224547;28;20422;-80
2021/07/30 08:36:57;;;;;;;7.53;2.72;;;;;;;22.72;100.00;100757.38;5207606;28;20028;-82
2021/07/30 08:39:28;;;;;;;7.78;2.30;;;;;;;22.67;100.00;100756.47;5225081;28;20075;-80
2021/07/30 08:42:00;;;;;;;9.70;2.83;;;;;;;22.44;100.00;100744.63;5224938;28;20115;-81
2021/07/30 08:44:32;;;;;;;8.80;3.10;;;;;;;22.10;100.00;100735.50;5223606;28;20087;-80
2021/07/30 08:47:03;;;;;;;7.00;2.55;;;;;;;22.07;100.00;100735.16;5224891;28;20553;-82
2021/07/30 08:49:34;;;;;;;8.43;2.80;;;;;;;22.00;100.00;100729.84;5223587;28;20024;-81
2021/07/30 08:52:06;;;;;;;8.05;3.30;;;;;;;21.82;100.00;100727.31;5224789;28;20025;-82
2021/07/30 08:54:38;;;;;;;5.72;2.42;;;;;;;21.75;100.00;100715.72;5217110;28;20598;-82
2021/07/30 08:57:10;;;;;;;6.80;2.70;;;;;;;21.79;100.00;100719.59;5206678;28;20040;-81
2021/07/30 08:59:41;;;;;;;10.18;3.58;;;;;;;21.88;100.00;100718.13;5221712;28;20067;-81
2021/07/30 09:02:11;;;;;;;16.38;3.25;;;;;;;22.22;100.00;100719.91;5213497;28;20437;-81
2021/07/30 09:04:42;;;;;;;12.05;3.38;;;;;;;22.49;100.00;100709.16;5191845;28;20025;-80
2021/07/30 09:07:12;;;;;;;8.30;2.70;;;;;;;22.78;100.00;100706.31;5189103;28;20029;-82
2021/07/30 09:09:53;;;;;;;4.55;2.53;;;;;;;23.26;100.00;100710.31;5219037;28;20021;-81
2021/07/30 09:12:23;;;;;;;7.40;3.03;;;;;;;23.23;100.00;100697.97;5220577;28;20243;-82
2021/07/30 09:14:54;;;;;;;5.13;2.58;;;;;;;23.46;100.00;100694.16;5219698;28;20104;-81
2021/07/30 09:17:38;;;;;;;12.18;3.20;;;;;;;23.58;100.00;100694.00;5219970;28;20476;-80
2021/07/30 09:20:11;;;;;;;4.43;2.67;;;;;;;23.67;100.00;100687.03;5224211;28;20025;-80
2021/07/30 09:22:50;;;;;;;6.63;2.80;;;;;;;23.39;100.00;100687.19;5209020;28;20018;-81
2021/07/30 09:25:34;;;;;;;6.70;2.67;;;;;;;23.32;100.00;100695.63;5214837;28;20025;-79
2021/07/30 09:28:06;;;;;;;4.25;2.40;;;;;;;23.73;100.00;100679.69;5211522;28;20391;-79
2021/07/30 09:30:37;;;;;;;5.07;3.10;;;;;;;24.24;100.00;100686.50;5197321;28;20033;-79
2021/07/30 09:33:08;;;;;;;6.35;3.35;;;;;;;24.36;100.00;100691.03;5223877;28;20115;-81
2021/07/30 09:35:56;;;;;;;7.00;3.05;;;;;;;24.51;100.00;100686.50;5233831;28;20017;-81
2021/07/30 09:38:27;;;;;;;9.35;3.38;;;;;;;24.32;97.49;100682.47;5212712;28;20120;-81
2021/07/30 09:41:11;;;;;;;6.63;3.10;;;;;;;23.92;99.00;100681.00;5216154;28;20693;-80
2021/07/30 09:43:44;;;;;;;5.95;3.28;;;;;;;24.01;100.00;100682.19;5210166;28;20032;-80
2021/07/30 09:46:15;;;;;;;4.70;3.05;;;;;;;23.67;100.00;100676.06;5221379;28;20172;-81
2021/07/30 09:48:51;;;;;;;6.40;3.30;;;;;;;23.92;100.00;100659.06;5227929;28;20047;-81
2021/07/30 09:51:21;;;;;;;9.68;3.97;;;;;;;24.33;100.00;100667.66;5228101;28;20025;-81
2021/07/30 09:53:52;;;;;;;7.40;3.00;;;;;;;24.59;100.00;100665.97;5227870;28;20032;-80
2021/07/30 09:56:24;;;;;;;6.03;2.80;;;;;;;25.03;100.00;100666.50;5226845;28;20017;-82
2021/07/30 09:58:57;;;;;;;6.60;2.92;;;;;;;25.24;98.42;100655.66;5210133;28;20082;-82
2021/07/30 10:01:29;;;;;;;4.70;2.90;;;;;;;25.20;95.36;100668.25;5228110;28;20431;-80
2021/07/30 10:04:01;;;;;;;7.07;2.90;;;;;;;24.93;100.00;100652.72;5227485;28;20036;-80
2021/07/30 10:06:32;;;;;;;4.53;2.80;;;;;;;25.13;91.45;100652.03;5239190;28;20104;-82
2021/07/30 10:09:05;;;;;;;7.55;3.10;;;;;;;25.05;100.00;100658.00;5229632;28;20475;-82
2021/07/30 10:11:39;;;;;;;6.38;2.92;;;;;;;25.29;95.67;100652.94;5228881;28;20406;-82
2021/07/30 10:14:11;;;;;;;4.25;2.42;;;;;;;25.42;83.19;100646.94;5234374;28;20021;-80
2021/07/30 10:16:55;;;;;;;4.75;3.00;;;;;;;25.14;80.16;100650.13;5234437;28;20056;-80
2021/07/30 10:19:28;;;;;;;3.53;2.78;;;;;;;25.11;92.85;100645.19;5234167;28;20021;-81
2021/07/30 10:22:01;;;;;;;3.50;2.72;;;;;;;24.57;88.14;100648.13;5233465;28;20036;-82
2021/07/30 10:24:38;;;;;;;6.68;2.88;;;;;;;24.57;93.45;100643.47;5234866;28;20053;-82
2021/07/30 10:27:10;;;;;;;4.57;3.08;;;;;;;24.46;98.51;100639.84;5234572;28;20035;-82
2021/07/30 10:30:07;;;;;;;7.18;2.90;;;;;;;24.90;100.00;100639.56;5233309;28;20036;-83
2021/07/30 10:32:51;;;;;;;3.85;2.80;;;;;;;24.85;96.73;100642.28;5233627;28;20029;-80
2021/07/30 10:35:25;;;;;;;7.40;3.78;;;;;;;24.37;100.00;100638.66;5220516;28;20021;-80
2021/07/30 10:38:09;;;;;;;7.85;3.05;;;;;;;24.22;87.48;100635.78;5233743;28;20091;-80
2021/07/30 10:40:42;;;;;;;5.45;2.83;;;;;;;23.88;100.00;100637.94;5233444;28;20474;-80
2021/07/30 10:43:14;;;;;;;6.00;3.40;;;;;;;23.82;100.00;100636.25;5233564;28;20032;-81
2021/07/30 10:46:08;;;;;;;6.55;3.20;;;;;;;23.48;100.00;100644.59;5234299;28;20067;-79
2021/07/30 10:48:40;;;;;;;5.05;3.45;;;;;;;23.42;100.00;100638.25;5233193;28;20104;-81
2021/07/30 10:51:23;;;;;;;7.97;3.17;;;;;;;23.53;100.00;100640.00;5231968;28;20037;-82
2021/07/30 10:53:54;;;;;;;3.70;2.78;;;;;;;23.39;100.00;100636.03;5232936;28;20033;-81
2021/07/30 10:56:28;;;;;;;6.55;3.10;;;;;;;23.40;100.00;100640.44;5234218;28;20032;-78
2021/07/30 10:59:00;;;;;;;5.18;2.72;;;;;;;23.51;100.00;100639.47;5234409;28;20060;-81
2021/07/30 11:01:39;;;;;;;6.88;3.28;;;;;;;23.47;100.00;100641.06;5234172;28;20060;-81
2021/07/30 11:04:11;;;;;;;7.93;3.20;;;;;;;23.83;100.00;100630.50;5232863;28;20035;-80
2021/07/30 11:06:42;;;;;;;8.77;3.38;;;;;;;24.17;100.00;100630.25;5221927;28;20533;-81
2021/07/30 11:09:16;;;;;;;5.60;3.10;;;;;;;24.20;100.00;100629.75;5232529;28;20111;-82
2021/07/30 11:11:54;;;;;;;7.05;3.63;;;;;;;24.39;100.00;100643.88;5234052;28;20487;-80
2021/07/30 11:14:26;;;;;;;7.93;3.67;;;;;;;24.34;100.00;100630.94;5216097;28;20076;-79
2021/07/30 11:16:58;;;;;;;5.93;2.97;;;;;;;24.71;100.00;100641.09;5233524;28;20021;-82
2021/07/30 11:19:32;;;;;;;7.15;3.17;;;;;;;24.45;100.00;100638.19;5234090;28;20032;-80
2021/07/30 11:22:06;;;;;;;12.63;4.00;;;;;;;24.40;100.00;100638.16;5233809;28;20029;-81
2021/07/30 11:24:39;;;;;;;6.90;3.58;;;;;;;24.25;100.00;100627.03;5230012;28;20041;-80
2021/07/30 11:27:11;;;;;;;6.65;3.28;;;;;;;24.71;100.00;100624.66;5230484;28;20029;-81
2021/07/30 11:29:49;;;;;;;5.10;2.70;;;;;;;24.65;98.07;100609.22;5230182;28;20025;-82
2021/07/30 11:32:21;;;;;;;10.13;3.30;;;;;;;24.66;97.58;100610.91;5231158;28;20500;-82
2021/07/30 11:34:52;;;;;;;4.57;3.00;;;;;;;24.93;100.00;100617.06;5228974;28;20083;-81
2021/07/30 11:37:25;;;;;;;5.63;2.92;;;;;;;25.20;100.00;100613.34;5230659;28;20021;-81